Terminal Aerodrome Forecast
Issued by NWS

Current Version | Previous Version | Text Only | Print | Product List | Glossary On
Versions: 1 2 3 4 5 6 7 8 9 10 11 12 13 14 15 16 17 18
000
FTUS45 KCYS 301246 CCC
TAFLAR
TAF COR
KLAR 301246Z 3013/3112 21006KT P6SM SCT120
      TEMPO 3013/3015 1/4SM FG VV002
     FM301900 30012G20KT P6SM SCT100
     FM310100 17012KT P6SM SCT200=

USA.gov is the U.S. government's official web portal to all federal, state and local government web resources and services.